sensor_id;sensor_type;location;lat;lon;timestamp;temperature;humidity
59208;DHT22;44977;53.132;6.408;2024-03-08T00:00:53;2.60;99.90
59208;DHT22;44977;53.132;6.408;2024-03-08T00:05:54;2.60;99.90
59208;DHT22;44977;53.132;6.408;2024-03-08T00:11:04;2.60;99.90
59208;DHT22;44977;53.132;6.408;2024-03-08T00:16:05;2.60;99.90
59208;DHT22;44977;53.132;6.408;2024-03-08T00:21:06;2.50;99.90
59208;DHT22;44977;53.132;6.408;2024-03-08T00:26:06;2.60;99.90
59208;DHT22;44977;53.132;6.408;2024-03-08T00:31:07;2.40;99.90
59208;DHT22;44977;53.132;6.408;2024-03-08T00:36:08;2.50;99.90
59208;DHT22;44977;53.132;6.408;2024-03-08T00:41:09;2.50;99.90
59208;DHT22;44977;53.132;6.408;2024-03-08T00:46:09;2.30;99.90
59208;DHT22;44977;53.132;6.408;2024-03-08T00:51:10;2.50;99.90
59208;DHT22;44977;53.132;6.408;2024-03-08T00:56:13;2.20;99.90
59208;DHT22;44977;53.132;6.408;2024-03-08T01:01:21;2.20;99.90
59208;DHT22;44977;53.132;6.408;2024-03-08T01:06:22;2.20;99.90
59208;DHT22;44977;53.132;6.408;2024-03-08T01:11:23;2.20;99.90
59208;DHT22;44977;53.132;6.408;2024-03-08T01:16:24;2.20;99.90
59208;DHT22;44977;53.132;6.408;2024-03-08T01:21:26;2.20;99.90
59208;DHT22;44977;53.132;6.408;2024-03-08T01:26:27;2.30;99.90
59208;DHT22;44977;53.132;6.408;2024-03-08T01:31:39;2.30;99.90
59208;DHT22;44977;53.132;6.408;2024-03-08T01:36:40;2.20;99.90
59208;DHT22;44977;53.132;6.408;2024-03-08T01:41:40;2.20;99.90
59208;DHT22;44977;53.132;6.408;2024-03-08T01:46:41;2.20;99.90
59208;DHT22;44977;53.132;6.408;2024-03-08T01:51:42;2.10;99.90
59208;DHT22;44977;53.132;6.408;2024-03-08T01:56:43;2.20;99.90
59208;DHT22;44977;53.132;6.408;2024-03-08T02:01:44;2.20;99.90
59208;DHT22;44977;53.132;6.408;2024-03-08T02:06:48;2.00;99.90
59208;DHT22;44977;53.132;6.408;2024-03-08T02:11:49;2.10;99.90
59208;DHT22;44977;53.132;6.408;2024-03-08T02:16:50;2.20;99.90
59208;DHT22;44977;53.132;6.408;2024-03-08T02:21:51;2.00;99.90
59208;DHT22;44977;53.132;6.408;2024-03-08T02:26:52;1.90;99.90
59208;DHT22;44977;53.132;6.408;2024-03-08T02:31:54;1.90;99.90
59208;DHT22;44977;53.132;6.408;2024-03-08T02:36:56;2.00;99.90
59208;DHT22;44977;53.132;6.408;2024-03-08T02:41:57;1.90;99.90
59208;DHT22;44977;53.132;6.408;2024-03-08T02:47:00;1.90;99.90
59208;DHT22;44977;53.132;6.408;2024-03-08T02:52:07;1.90;99.90
59208;DHT22;44977;53.132;6.408;2024-03-08T02:57:08;1.90;99.90
59208;DHT22;44977;53.132;6.408;2024-03-08T03:02:19;1.80;99.90
59208;DHT22;44977;53.132;6.408;2024-03-08T03:07:22;1.80;99.90
59208;DHT22;44977;53.132;6.408;2024-03-08T03:12:36;1.60;99.90
59208;DHT22;44977;53.132;6.408;2024-03-08T03:17:37;1.70;99.90
59208;DHT22;44977;53.132;6.408;2024-03-08T03:22:38;1.50;99.90
59208;DHT22;44977;53.132;6.408;2024-03-08T03:27:41;1.60;99.90
59208;DHT22;44977;53.132;6.408;2024-03-08T03:32:42;1.70;99.90
59208;DHT22;44977;53.132;6.408;2024-03-08T03:37:47;1.60;99.90
59208;DHT22;44977;53.132;6.408;2024-03-08T03:43:06;1.60;99.90
59208;DHT22;44977;53.132;6.408;2024-03-08T03:48:08;1.60;99.90
59208;DHT22;44977;53.132;6.408;2024-03-08T03:53:14;1.50;99.90
59208;DHT22;44977;53.132;6.408;2024-03-08T03:58:15;1.50;99.90
59208;DHT22;44977;53.132;6.408;2024-03-08T04:03:16;1.40;99.90
59208;DHT22;44977;53.132;6.408;2024-03-08T04:08:17;1.40;99.90
59208;DHT22;44977;53.132;6.408;2024-03-08T04:13:18;1.30;99.90
59208;DHT22;44977;53.132;6.408;2024-03-08T04:18:21;1.40;99.90
59208;DHT22;44977;53.132;6.408;2024-03-08T04:23:21;1.30;99.90
59208;DHT22;44977;53.132;6.408;2024-03-08T04:28:22;1.30;99.90
59208;DHT22;44977;53.132;6.408;2024-03-08T04:33:23;1.40;99.90
59208;DHT22;44977;53.132;6.408;2024-03-08T04:38:24;1.30;99.90
59208;DHT22;44977;53.132;6.408;2024-03-08T04:43:25;1.40;99.90
59208;DHT22;44977;53.132;6.408;2024-03-08T04:48:30;1.40;99.90
59208;DHT22;44977;53.132;6.408;2024-03-08T04:53:30;1.60;99.90
59208;DHT22;44977;53.132;6.408;2024-03-08T04:58:36;1.40;99.90
59208;DHT22;44977;53.132;6.408;2024-03-08T05:03:36;1.50;99.90
59208;DHT22;44977;53.132;6.408;2024-03-08T05:08:37;1.40;99.90
59208;DHT22;44977;53.132;6.408;2024-03-08T05:18:48;1.50;99.90
59208;DHT22;44977;53.132;6.408;2024-03-08T05:23:57;1.40;99.90
59208;DHT22;44977;53.132;6.408;2024-03-08T05:29:05;1.40;99.90
59208;DHT22;44977;53.132;6.408;2024-03-08T05:34:08;1.40;99.90
59208;DHT22;44977;53.132;6.408;2024-03-08T05:39:13;1.40;99.90
59208;DHT22;44977;53.132;6.408;2024-03-08T05:44:14;1.40;99.90
59208;DHT22;44977;53.132;6.408;2024-03-08T05:49:17;1.40;99.90
59208;DHT22;44977;53.132;6.408;2024-03-08T05:54:18;1.30;99.90
59208;DHT22;44977;53.132;6.408;2024-03-08T05:59:19;1.30;99.90
59208;DHT22;44977;53.132;6.408;2024-03-08T06:04:20;1.20;99.90
59208;DHT22;44977;53.132;6.408;2024-03-08T06:09:20;1.30;99.90
59208;DHT22;44977;53.132;6.408;2024-03-08T06:14:23;1.10;99.90
59208;DHT22;44977;53.132;6.408;2024-03-08T06:19:24;1.30;99.90
59208;DHT22;44977;53.132;6.408;2024-03-08T06:24:27;1.30;99.90
59208;DHT22;44977;53.132;6.408;2024-03-08T06:29:28;1.10;99.90
59208;DHT22;44977;53.132;6.408;2024-03-08T06:34:32;1.10;99.90
59208;DHT22;44977;53.132;6.408;2024-03-08T06:39:35;1.10;99.90
59208;DHT22;44977;53.132;6.408;2024-03-08T06:44:36;1.10;99.90
59208;DHT22;44977;53.132;6.408;2024-03-08T06:49:38;1.10;99.90
59208;DHT22;44977;53.132;6.408;2024-03-08T06:54:39;1.10;99.90
59208;DHT22;44977;53.132;6.408;2024-03-08T06:59:41;1.10;99.90
59208;DHT22;44977;53.132;6.408;2024-03-08T07:04:42;1.20;99.90
59208;DHT22;44977;53.132;6.408;2024-03-08T07:09:45;1.20;99.90
59208;DHT22;44977;53.132;6.408;2024-03-08T07:14:45;1.30;99.90
59208;DHT22;44977;53.132;6.408;2024-03-08T07:19:48;1.40;99.90
59208;DHT22;44977;53.132;6.408;2024-03-08T07:24:52;1.50;99.90
59208;DHT22;44977;53.132;6.408;2024-03-08T07:30:11;1.60;99.90
59208;DHT22;44977;53.132;6.408;2024-03-08T07:35:31;1.70;99.90
59208;DHT22;44977;53.132;6.408;2024-03-08T07:40:39;1.90;99.90
59208;DHT22;44977;53.132;6.408;2024-03-08T07:45:41;1.90;99.90
59208;DHT22;44977;53.132;6.408;2024-03-08T07:50:42;2.20;99.90
59208;DHT22;44977;53.132;6.408;2024-03-08T07:55:43;2.50;99.90
59208;DHT22;44977;53.132;6.408;2024-03-08T08:00:47;2.50;99.90
59208;DHT22;44977;53.132;6.408;2024-03-08T08:05:49;2.70;99.90
59208;DHT22;44977;53.132;6.408;2024-03-08T08:10:50;2.80;99.90
59208;DHT22;44977;53.132;6.408;2024-03-08T08:15:50;2.90;99.90
59208;DHT22;44977;53.132;6.408;2024-03-08T08:20:51;3.10;99.90
59208;DHT22;44977;53.132;6.408;2024-03-08T08:25:55;3.30;99.90
59208;DHT22;44977;53.132;6.408;2024-03-08T08:30:56;3.50;99.90
59208;DHT22;44977;53.132;6.408;2024-03-08T08:35:57;3.70;99.90
59208;DHT22;44977;53.132;6.408;2024-03-08T08:40:58;3.80;99.90
59208;DHT22;44977;53.132;6.408;2024-03-08T08:45:59;3.90;99.90
59208;DHT22;44977;53.132;6.408;2024-03-08T08:51:00;4.10;99.90
59208;DHT22;44977;53.132;6.408;2024-03-08T08:56:01;4.20;99.90
59208;DHT22;44977;53.132;6.408;2024-03-08T09:01:02;4.40;99.90
59208;DHT22;44977;53.132;6.408;2024-03-08T09:06:07;4.60;99.90
59208;DHT22;44977;53.132;6.408;2024-03-08T09:11:10;4.60;99.90
59208;DHT22;44977;53.132;6.408;2024-03-08T09:16:11;4.70;99.90
59208;DHT22;44977;53.132;6.408;2024-03-08T09:21:12;4.80;99.90
59208;DHT22;44977;53.132;6.408;2024-03-08T09:26:13;4.90;99.90
59208;DHT22;44977;53.132;6.408;2024-03-08T09:31:15;5.00;99.90
59208;DHT22;44977;53.132;6.408;2024-03-08T09:36:16;5.10;99.90
59208;DHT22;44977;53.132;6.408;2024-03-08T09:41:17;5.30;99.90
59208;DHT22;44977;53.132;6.408;2024-03-08T09:46:19;5.40;99.90
59208;DHT22;44977;53.132;6.408;2024-03-08T09:51:28;5.50;99.90
59208;DHT22;44977;53.132;6.408;2024-03-08T09:56:29;5.60;99.90
59208;DHT22;44977;53.132;6.408;2024-03-08T10:01:30;5.70;99.90
59208;DHT22;44977;53.132;6.408;2024-03-08T10:06:30;5.80;99.90
59208;DHT22;44977;53.132;6.408;2024-03-08T10:11:34;5.90;99.90
59208;DHT22;44977;53.132;6.408;2024-03-08T10:16:35;5.90;99.90
59208;DHT22;44977;53.132;6.408;2024-03-08T10:21:36;6.00;99.90
59208;DHT22;44977;53.132;6.408;2024-03-08T10:26:47;6.20;99.90
59208;DHT22;44977;53.132;6.408;2024-03-08T10:31:48;6.30;99.90
59208;DHT22;44977;53.132;6.408;2024-03-08T10:36:51;6.30;99.90
59208;DHT22;44977;53.132;6.408;2024-03-08T10:41:58;6.50;99.90
59208;DHT22;44977;53.132;6.408;2024-03-08T10:47:09;6.70;99.90
59208;DHT22;44977;53.132;6.408;2024-03-08T10:52:11;6.70;99.90
59208;DHT22;44977;53.132;6.408;2024-03-08T10:57:14;6.80;99.90
59208;DHT22;44977;53.132;6.408;2024-03-08T11:02:17;7.00;99.90
59208;DHT22;44977;53.132;6.408;2024-03-08T11:07:19;7.10;99.90
59208;DHT22;44977;53.132;6.408;2024-03-08T11:22:34;7.50;99.90
59208;DHT22;44977;53.132;6.408;2024-03-08T11:27:38;7.50;99.90
59208;DHT22;44977;53.132;6.408;2024-03-08T11:32:39;7.60;99.90
59208;DHT22;44977;53.132;6.408;2024-03-08T11:37:44;7.60;99.90
59208;DHT22;44977;53.132;6.408;2024-03-08T11:42:46;7.80;99.90
59208;DHT22;44977;53.132;6.408;2024-03-08T11:47:48;7.90;99.90
59208;DHT22;44977;53.132;6.408;2024-03-08T11:52:49;8.00;99.90
59208;DHT22;44977;53.132;6.408;2024-03-08T11:57:50;8.20;99.90
59208;DHT22;44977;53.132;6.408;2024-03-08T12:03:09;8.20;99.90
59208;DHT22;44977;53.132;6.408;2024-03-08T12:08:13;8.30;99.90
59208;DHT22;44977;53.132;6.408;2024-03-08T12:13:14;8.40;99.90
59208;DHT22;44977;53.132;6.408;2024-03-08T12:18:15;8.60;99.90
59208;DHT22;44977;53.132;6.408;2024-03-08T12:23:16;8.70;99.90
59208;DHT22;44977;53.132;6.408;2024-03-08T12:28:19;8.80;99.90
59208;DHT22;44977;53.132;6.408;2024-03-08T12:33:22;9.00;99.90
59208;DHT22;44977;53.132;6.408;2024-03-08T12:38:23;9.10;99.90
59208;DHT22;44977;53.132;6.408;2024-03-08T12:43:26;9.20;99.90
59208;DHT22;44977;53.132;6.408;2024-03-08T12:48:34;9.30;99.90
59208;DHT22;44977;53.132;6.408;2024-03-08T12:53:35;9.20;99.90
59208;DHT22;44977;53.132;6.408;2024-03-08T12:58:36;9.30;99.90
59208;DHT22;44977;53.132;6.408;2024-03-08T13:03:38;9.40;99.90
59208;DHT22;44977;53.132;6.408;2024-03-08T13:08:40;9.30;99.90
59208;DHT22;44977;53.132;6.408;2024-03-08T13:13:41;9.20;99.90
59208;DHT22;44977;53.132;6.408;2024-03-08T13:18:48;9.20;99.90
59208;DHT22;44977;53.132;6.408;2024-03-08T13:23:49;9.20;99.90
59208;DHT22;44977;53.132;6.408;2024-03-08T13:28:50;9.30;99.90
59208;DHT22;44977;53.132;6.408;2024-03-08T13:33:54;9.20;99.90
59208;DHT22;44977;53.132;6.408;2024-03-08T13:38:58;9.30;99.90
59208;DHT22;44977;53.132;6.408;2024-03-08T13:43:59;9.40;99.90
59208;DHT22;44977;53.132;6.408;2024-03-08T13:49:04;9.40;99.90
59208;DHT22;44977;53.132;6.408;2024-03-08T13:54:10;9.40;99.90
59208;DHT22;44977;53.132;6.408;2024-03-08T13:59:11;9.30;99.90
59208;DHT22;44977;53.132;6.408;2024-03-08T14:04:12;9.30;99.90
59208;DHT22;44977;53.132;6.408;2024-03-08T14:09:16;9.30;99.90
59208;DHT22;44977;53.132;6.408;2024-03-08T14:14:23;9.30;99.90
59208;DHT22;44977;53.132;6.408;2024-03-08T14:19:24;9.30;99.90
59208;DHT22;44977;53.132;6.408;2024-03-08T14:24:25;9.30;99.90
59208;DHT22;44977;53.132;6.408;2024-03-08T14:29:25;9.20;99.90
59208;DHT22;44977;53.132;6.408;2024-03-08T14:34:29;9.20;99.90
59208;DHT22;44977;53.132;6.408;2024-03-08T14:39:31;9.20;99.90
59208;DHT22;44977;53.132;6.408;2024-03-08T14:44:33;9.20;99.90
59208;DHT22;44977;53.132;6.408;2024-03-08T14:49:34;9.30;99.90
59208;DHT22;44977;53.132;6.408;2024-03-08T14:54:36;9.20;99.90
59208;DHT22;44977;53.132;6.408;2024-03-08T14:59:37;9.20;99.90
59208;DHT22;44977;53.132;6.408;2024-03-08T15:04:38;9.30;99.90
59208;DHT22;44977;53.132;6.408;2024-03-08T15:09:41;9.30;99.90
59208;DHT22;44977;53.132;6.408;2024-03-08T15:14:43;9.30;99.90
59208;DHT22;44977;53.132;6.408;2024-03-08T15:19:44;9.20;99.90
59208;DHT22;44977;53.132;6.408;2024-03-08T15:24:45;9.20;99.90
59208;DHT22;44977;53.132;6.408;2024-03-08T15:29:46;9.10;99.90
59208;DHT22;44977;53.132;6.408;2024-03-08T15:34:52;9.10;99.90
59208;DHT22;44977;53.132;6.408;2024-03-08T15:39:54;9.00;99.90
59208;DHT22;44977;53.132;6.408;2024-03-08T15:44:55;9.00;99.90
59208;DHT22;44977;53.132;6.408;2024-03-08T15:49:56;8.90;99.90
59208;DHT22;44977;53.132;6.408;2024-03-08T15:54:57;8.80;99.90
59208;DHT22;44977;53.132;6.408;2024-03-08T15:59:58;8.70;99.90
59208;DHT22;44977;53.132;6.408;2024-03-08T16:05:03;8.60;99.90
59208;DHT22;44977;53.132;6.408;2024-03-08T16:10:10;8.50;99.90
59208;DHT22;44977;53.132;6.408;2024-03-08T16:15:11;8.40;99.90
59208;DHT22;44977;53.132;6.408;2024-03-08T16:20:14;8.30;99.90
59208;DHT22;44977;53.132;6.408;2024-03-08T16:25:15;8.30;99.90
59208;DHT22;44977;53.132;6.408;2024-03-08T16:30:19;8.20;99.90
59208;DHT22;44977;53.132;6.408;2024-03-08T16:35:23;8.20;99.90
59208;DHT22;44977;53.132;6.408;2024-03-08T16:40:23;8.10;99.90
59208;DHT22;44977;53.132;6.408;2024-03-08T16:45:24;8.00;99.90
59208;DHT22;44977;53.132;6.408;2024-03-08T16:50:27;7.90;99.90
59208;DHT22;44977;53.132;6.408;2024-03-08T16:55:32;7.80;99.90
59208;DHT22;44977;53.132;6.408;2024-03-08T17:00:34;7.80;99.90
59208;DHT22;44977;53.132;6.408;2024-03-08T17:05:36;7.70;99.90
59208;DHT22;44977;53.132;6.408;2024-03-08T17:10:38;7.60;99.90
59208;DHT22;44977;53.132;6.408;2024-03-08T17:15:40;7.50;99.90
59208;DHT22;44977;53.132;6.408;2024-03-08T17:20:43;7.50;99.90
59208;DHT22;44977;53.132;6.408;2024-03-08T17:25:44;7.40;99.90
59208;DHT22;44977;53.132;6.408;2024-03-08T17:30:46;7.40;99.90
59208;DHT22;44977;53.132;6.408;2024-03-08T17:35:47;7.20;99.90
59208;DHT22;44977;53.132;6.408;2024-03-08T17:40:48;7.20;99.90
59208;DHT22;44977;53.132;6.408;2024-03-08T17:45:49;7.20;99.90
59208;DHT22;44977;53.132;6.408;2024-03-08T17:50:49;7.10;99.90
59208;DHT22;44977;53.132;6.408;2024-03-08T17:55:50;7.00;99.90
59208;DHT22;44977;53.132;6.408;2024-03-08T18:00:52;7.00;99.90
59208;DHT22;44977;53.132;6.408;2024-03-08T18:05:54;6.90;99.90
59208;DHT22;44977;53.132;6.408;2024-03-08T18:10:55;6.80;99.90
59208;DHT22;44977;53.132;6.408;2024-03-08T18:15:56;6.70;99.90
59208;DHT22;44977;53.132;6.408;2024-03-08T18:20:56;6.60;99.90
59208;DHT22;44977;53.132;6.408;2024-03-08T18:25:57;6.60;99.90
59208;DHT22;44977;53.132;6.408;2024-03-08T18:30:58;6.60;99.90
59208;DHT22;44977;53.132;6.408;2024-03-08T18:36:01;6.50;99.90
59208;DHT22;44977;53.132;6.408;2024-03-08T18:41:07;6.40;99.90
59208;DHT22;44977;53.132;6.408;2024-03-08T18:46:08;6.40;99.90
59208;DHT22;44977;53.132;6.408;2024-03-08T18:51:09;6.30;99.90
59208;DHT22;44977;53.132;6.408;2024-03-08T18:56:10;6.30;99.90
59208;DHT22;44977;53.132;6.408;2024-03-08T19:01:10;6.30;99.90
59208;DHT22;44977;53.132;6.408;2024-03-08T19:06:11;6.20;99.90
59208;DHT22;44977;53.132;6.408;2024-03-08T19:11:12;6.20;99.90
59208;DHT22;44977;53.132;6.408;2024-03-08T19:16:14;6.20;99.90
59208;DHT22;44977;53.132;6.408;2024-03-08T19:21:17;6.20;99.90
59208;DHT22;44977;53.132;6.408;2024-03-08T19:26:17;6.10;99.90
59208;DHT22;44977;53.132;6.408;2024-03-08T19:31:22;6.10;99.90
59208;DHT22;44977;53.132;6.408;2024-03-08T19:36:23;6.10;99.90
59208;DHT22;44977;53.132;6.408;2024-03-08T19:41:24;6.00;99.90
59208;DHT22;44977;53.132;6.408;2024-03-08T19:46:27;6.00;99.90
59208;DHT22;44977;53.132;6.408;2024-03-08T19:51:28;6.00;99.90
59208;DHT22;44977;53.132;6.408;2024-03-08T19:56:30;5.90;99.90
59208;DHT22;44977;53.132;6.408;2024-03-08T20:01:32;5.90;99.90
59208;DHT22;44977;53.132;6.408;2024-03-08T20:06:33;5.80;99.90
59208;DHT22;44977;53.132;6.408;2024-03-08T20:11:35;5.80;99.90
59208;DHT22;44977;53.132;6.408;2024-03-08T20:16:39;5.80;99.90
59208;DHT22;44977;53.132;6.408;2024-03-08T20:21:57;5.80;99.90
59208;DHT22;44977;53.132;6.408;2024-03-08T20:27:00;5.80;99.90
59208;DHT22;44977;53.132;6.408;2024-03-08T20:32:05;5.70;99.90
59208;DHT22;44977;53.132;6.408;2024-03-08T20:37:08;5.70;99.90
59208;DHT22;44977;53.132;6.408;2024-03-08T20:42:09;5.60;99.90
59208;DHT22;44977;53.132;6.408;2024-03-08T20:47:11;5.60;99.90
59208;DHT22;44977;53.132;6.408;2024-03-08T20:52:12;5.50;99.90
59208;DHT22;44977;53.132;6.408;2024-03-08T20:57:16;5.50;99.90
59208;DHT22;44977;53.132;6.408;2024-03-08T21:02:17;5.40;99.90
59208;DHT22;44977;53.132;6.408;2024-03-08T21:07:18;5.40;99.90
59208;DHT22;44977;53.132;6.408;2024-03-08T21:12:18;5.30;99.90
59208;DHT22;44977;53.132;6.408;2024-03-08T21:17:21;5.30;99.90
59208;DHT22;44977;53.132;6.408;2024-03-08T21:22:25;5.30;99.90
59208;DHT22;44977;53.132;6.408;2024-03-08T21:27:25;5.30;99.90
59208;DHT22;44977;53.132;6.408;2024-03-08T21:32:26;5.20;99.90
59208;DHT22;44977;53.132;6.408;2024-03-08T21:37:27;5.20;99.90
59208;DHT22;44977;53.132;6.408;2024-03-08T21:42:27;5.10;99.90
59208;DHT22;44977;53.132;6.408;2024-03-08T21:47:29;5.10;99.90
59208;DHT22;44977;53.132;6.408;2024-03-08T21:52:29;5.10;99.90
59208;DHT22;44977;53.132;6.408;2024-03-08T21:57:42;5.10;99.90
59208;DHT22;44977;53.132;6.408;2024-03-08T22:02:50;5.00;99.90
59208;DHT22;44977;53.132;6.408;2024-03-08T22:07:52;5.00;99.90
59208;DHT22;44977;53.132;6.408;2024-03-08T22:12:53;5.00;99.90
59208;DHT22;44977;53.132;6.408;2024-03-08T22:18:02;4.90;99.90
59208;DHT22;44977;53.132;6.408;2024-03-08T22:23:09;4.90;99.90
59208;DHT22;44977;53.132;6.408;2024-03-08T22:28:12;4.90;99.90
59208;DHT22;44977;53.132;6.408;2024-03-08T22:33:15;4.80;99.90
59208;DHT22;44977;53.132;6.408;2024-03-08T22:38:19;4.80;99.90
59208;DHT22;44977;53.132;6.408;2024-03-08T22:43:23;4.70;99.90
59208;DHT22;44977;53.132;6.408;2024-03-08T22:48:27;4.70;99.90
59208;DHT22;44977;53.132;6.408;2024-03-08T22:53:34;4.70;99.90
59208;DHT22;44977;53.132;6.408;2024-03-08T22:58:37;4.60;99.90
59208;DHT22;44977;53.132;6.408;2024-03-08T23:03:45;4.60;99.90
59208;DHT22;44977;53.132;6.408;2024-03-08T23:08:46;4.60;99.90
59208;DHT22;44977;53.132;6.408;2024-03-08T23:13:48;4.60;99.90
59208;DHT22;44977;53.132;6.408;2024-03-08T23:18:56;4.50;99.90
59208;DHT22;44977;53.132;6.408;2024-03-08T23:23:58;4.50;99.90
59208;DHT22;44977;53.132;6.408;2024-03-08T23:28:58;4.40;99.90
59208;DHT22;44977;53.132;6.408;2024-03-08T23:34:00;4.40;99.90
59208;DHT22;44977;53.132;6.408;2024-03-08T23:39:00;4.40;99.90
59208;DHT22;44977;53.132;6.408;2024-03-08T23:44:01;4.30;99.90
59208;DHT22;44977;53.132;6.408;2024-03-08T23:49:03;4.30;99.90
59208;DHT22;44977;53.132;6.408;2024-03-08T23:54:06;4.30;99.90
59208;DHT22;44977;53.132;6.408;2024-03-08T23:59:13;4.20;99.90
